createdAt,value
2023-11-09T00:02:26.450Z,93554.44
2023-11-09T00:04:53.414Z,93549.28
2023-11-09T00:07:20.641Z,93534.75
2023-11-09T00:09:47.333Z,93530.06
2023-11-09T00:12:14.059Z,93527.19
2023-11-09T00:14:41.200Z,93530.84
2023-11-09T00:17:08.025Z,93527.03
2023-11-09T00:19:35.047Z,93523.16
2023-11-09T00:22:01.774Z,93528.56
2023-11-09T00:24:28.506Z,93533.50
2023-11-09T00:26:55.385Z,93527.44
2023-11-09T00:29:22.106Z,93529.25
2023-11-09T00:31:48.929Z,93526.47
2023-11-09T00:34:16.085Z,93524.47
2023-11-09T00:36:43.693Z,93530.16
2023-11-09T00:39:13.460Z,93531.69
2023-11-09T00:41:42.813Z,93528.50
2023-11-09T00:44:10.883Z,93524.31
2023-11-09T00:46:37.629Z,93522.06
2023-11-09T00:49:04.399Z,93520.16
2023-11-09T00:51:31.715Z,93520.81
2023-11-09T00:53:58.692Z,93514.28
2023-11-09T00:56:25.655Z,93512.22
2023-11-09T00:58:52.362Z,93511.09
2023-11-09T01:01:19.123Z,93518.84
2023-11-09T01:03:46.008Z,93500.25
2023-11-09T01:06:12.794Z,93495.94
2023-11-09T01:08:39.569Z,93502.47
2023-11-09T01:11:07.419Z,93503.97
2023-11-09T01:13:37.380Z,93498.16
2023-11-09T01:16:04.847Z,93498.91
2023-11-09T01:18:31.623Z,93496.56
2023-11-09T01:20:58.564Z,93499.69
2023-11-09T01:23:27.196Z,93497.53
2023-11-09T01:25:53.873Z,93488.69
2023-11-09T01:28:20.574Z,93489.38
2023-11-09T01:30:48.247Z,93485.66
2023-11-09T01:33:15.172Z,93493.50
2023-11-09T01:35:42.015Z,93488.88
2023-11-09T01:38:08.797Z,93482.41
2023-11-09T01:40:37.506Z,93481.72
2023-11-09T01:43:11.509Z,93485.53
2023-11-09T01:45:38.311Z,93478.19
2023-11-09T01:48:05.979Z,93472.59
2023-11-09T01:50:33.235Z,93470.66
2023-11-09T01:53:01.869Z,93475.88
2023-11-09T01:55:31.038Z,93475.09
2023-11-09T01:57:57.918Z,93474.63
2023-11-09T02:00:24.652Z,93461.31
2023-11-09T02:02:54.475Z,93455.53
2023-11-09T02:05:23.342Z,93455.56
2023-11-09T02:07:53.583Z,93452.81
2023-11-09T02:10:20.546Z,93455.94
2023-11-09T02:12:47.305Z,93453.81
2023-11-09T02:15:14.114Z,93443.03
2023-11-09T02:17:41.735Z,93437.69
2023-11-09T02:20:10.518Z,93440.00
2023-11-09T02:22:39.180Z,93429.13
2023-11-09T02:25:07.286Z,93430.44
2023-11-09T02:27:35.745Z,93423.53
2023-11-09T02:30:02.498Z,93414.75
2023-11-09T02:32:29.279Z,93408.22
2023-11-09T02:34:57.588Z,93411.69
2023-11-09T02:37:25.460Z,93406.38
2023-11-09T02:39:55.956Z,93402.50
2023-11-09T02:42:23.302Z,93402.16
2023-11-09T02:44:50.718Z,93400.25
2023-11-09T02:47:17.593Z,93397.16
2023-11-09T02:49:44.371Z,93385.75
2023-11-09T02:52:11.808Z,93381.53
2023-11-09T02:54:38.671Z,93378.63
2023-11-09T02:57:06.504Z,93382.50
2023-11-09T02:59:33.226Z,93380.47
2023-11-09T03:01:59.901Z,93379.28
2023-11-09T03:04:26.604Z,93380.81
2023-11-09T03:06:53.406Z,93383.53
2023-11-09T03:09:20.899Z,93383.88
2023-11-09T03:11:47.565Z,93375.91
2023-11-09T03:14:14.476Z,93376.63
2023-11-09T03:16:41.133Z,93374.94
2023-11-09T03:19:09.173Z,93373.47
2023-11-09T03:21:36.293Z,93356.81
2023-11-09T03:24:03.067Z,93360.69
2023-11-09T03:26:30.680Z,93360.75
2023-11-09T03:28:57.905Z,93351.94
2023-11-09T03:31:24.659Z,93355.47
2023-11-09T03:33:51.390Z,93353.16
2023-11-09T03:36:19.640Z,93342.66
2023-11-09T03:38:46.942Z,93343.25
2023-11-09T03:41:13.750Z,93337.72
2023-11-09T03:43:41.437Z,93342.31
2023-11-09T03:46:13.946Z,93332.53
2023-11-09T03:48:40.916Z,93337.16
2023-11-09T03:51:08.497Z,93333.56
2023-11-09T03:53:35.233Z,93327.50
2023-11-09T03:56:02.305Z,93324.59
2023-11-09T03:58:29.057Z,93328.47
2023-11-09T04:00:55.969Z,93331.22
2023-11-09T04:03:22.857Z,93327.78
2023-11-09T04:05:49.692Z,93325.94
2023-11-09T04:08:16.425Z,93317.44
2023-11-09T04:10:43.095Z,93315.47
2023-11-09T04:13:09.763Z,93311.47
2023-11-09T04:15:37.654Z,93303.50
2023-11-09T04:18:04.357Z,93317.91
2023-11-09T04:20:31.021Z,93317.97
2023-11-09T04:22:57.688Z,93308.38
2023-11-09T04:25:24.874Z,93304.19
2023-11-09T04:27:52.135Z,93303.78
2023-11-09T04:30:21.923Z,93297.22
2023-11-09T04:32:52.543Z,93296.53
2023-11-09T04:35:21.286Z,93300.69
2023-11-09T04:37:50.702Z,93301.03
2023-11-09T04:40:17.651Z,93295.28
2023-11-09T04:42:48.110Z,93287.59
2023-11-09T04:45:16.119Z,93298.00
2023-11-09T04:47:43.285Z,93292.66
2023-11-09T04:50:17.063Z,93289.25
2023-11-09T04:52:53.360Z,93283.53
2023-11-09T04:55:33.575Z,93275.03
2023-11-09T04:58:21.628Z,93281.63
2023-11-09T05:01:07.157Z,93280.44
2023-11-09T05:03:52.057Z,93273.91
2023-11-09T05:06:37.427Z,93277.03
2023-11-09T05:09:04.219Z,93269.63
2023-11-09T05:11:31.673Z,93269.69
2023-11-09T05:13:59.950Z,93263.91
2023-11-09T05:16:28.155Z,93263.63
2023-11-09T05:18:54.881Z,93269.09
2023-11-09T05:21:22.089Z,93267.09
2023-11-09T05:23:48.837Z,93262.44
2023-11-09T05:26:15.885Z,93268.66
2023-11-09T05:28:42.541Z,93266.81
2023-11-09T05:31:09.460Z,93264.16
2023-11-09T05:33:38.472Z,93267.69
2023-11-09T05:36:09.824Z,93261.06
2023-11-09T05:38:37.026Z,93261.06
2023-11-09T05:41:05.482Z,93259.00
2023-11-09T05:43:32.265Z,93243.66
2023-11-09T05:45:59.497Z,93247.88
2023-11-09T05:48:26.464Z,93248.59
2023-11-09T05:50:53.252Z,93250.16
2023-11-09T05:53:19.944Z,93260.22
2023-11-09T05:55:46.631Z,93248.59
2023-11-09T05:58:13.982Z,93255.91
2023-11-09T06:00:40.934Z,93244.06
2023-11-09T06:03:07.684Z,93249.78
2023-11-09T06:05:34.546Z,93252.22
2023-11-09T06:08:01.671Z,93249.25
2023-11-09T06:10:31.051Z,93253.66
2023-11-09T06:12:58.096Z,93249.50
2023-11-09T06:15:25.569Z,93243.38
2023-11-09T06:17:53.458Z,93250.69
2023-11-09T06:20:21.597Z,93250.59
2023-11-09T06:22:49.801Z,93256.41
2023-11-09T06:25:16.485Z,93250.28
2023-11-09T06:27:43.185Z,93258.81
2023-11-09T06:30:10.377Z,93255.31
2023-11-09T06:32:37.404Z,93255.03
2023-11-09T06:35:08.533Z,93264.03
2023-11-09T06:37:35.428Z,93269.84
2023-11-09T06:40:12.433Z,93267.72
2023-11-09T06:42:40.470Z,93264.34
2023-11-09T06:45:07.965Z,93267.47
2023-11-09T06:47:36.481Z,93278.78
2023-11-09T06:50:04.015Z,93269.97
2023-11-09T06:52:30.927Z,93269.97
2023-11-09T06:54:57.686Z,93265.03
2023-11-09T06:57:24.444Z,93264.81
2023-11-09T06:59:51.195Z,93281.38
2023-11-09T07:02:18.749Z,93284.81
2023-11-09T07:04:45.652Z,93283.00
2023-11-09T07:07:12.514Z,93281.22
2023-11-09T07:09:39.190Z,93286.34
2023-11-09T07:12:06.471Z,93291.31
2023-11-09T07:14:33.261Z,93277.53
2023-11-09T07:16:59.973Z,93290.44
2023-11-09T07:19:26.722Z,93288.63
2023-11-09T07:21:54.520Z,93292.94
2023-11-09T07:24:21.286Z,93296.09
2023-11-09T07:26:48.732Z,93314.34
2023-11-09T07:29:15.385Z,93316.38
2023-11-09T07:31:42.228Z,93331.59
2023-11-09T07:34:08.999Z,93324.28
2023-11-09T07:36:35.740Z,93322.03
2023-11-09T07:39:06.485Z,93309.66
2023-11-09T07:41:33.732Z,93302.38
2023-11-09T07:44:00.971Z,93323.72
2023-11-09T07:46:28.126Z,93314.66
2023-11-09T07:48:58.610Z,93312.00
2023-11-09T07:51:25.380Z,93322.16
2023-11-09T07:53:52.795Z,93316.41
2023-11-09T07:56:19.479Z,93316.06
2023-11-09T07:58:46.210Z,93312.22
2023-11-09T08:01:13.009Z,93316.91
2023-11-09T08:03:40.556Z,93323.88
2023-11-09T08:06:08.578Z,93334.72
2023-11-09T08:08:36.650Z,93327.75
2023-11-09T08:11:03.606Z,93317.78
2023-11-09T08:13:30.356Z,93311.19
2023-11-09T08:15:59.996Z,93309.56
2023-11-09T08:18:26.822Z,93308.31
2023-11-09T08:20:53.934Z,93298.97
2023-11-09T08:23:20.714Z,93310.25
2023-11-09T08:25:47.431Z,93303.22
2023-11-09T08:28:14.438Z,93315.22
2023-11-09T08:30:41.244Z,93309.72
2023-11-09T08:33:10.995Z,93301.09
2023-11-09T08:35:39.092Z,93316.13
2023-11-09T08:38:06.919Z,93311.03
2023-11-09T08:40:34.074Z,93314.09
2023-11-09T08:43:00.791Z,93316.72
2023-11-09T08:45:30.781Z,93308.88
2023-11-09T08:47:58.218Z,93304.50
2023-11-09T08:50:26.244Z,93302.78
2023-11-09T08:52:55.081Z,93294.59
2023-11-09T08:55:22.006Z,93305.09
2023-11-09T08:57:48.676Z,93310.13
2023-11-09T09:00:17.623Z,93310.50
2023-11-09T09:02:52.417Z,93309.28
2023-11-09T09:05:20.789Z,93302.25
2023-11-09T09:07:50.790Z,93299.91
2023-11-09T09:10:22.286Z,93294.84
2023-11-09T09:12:51.207Z,93289.72
2023-11-09T09:15:19.282Z,93289.31
2023-11-09T09:17:48.259Z,93285.78
2023-11-09T09:20:21.280Z,93279.13
2023-11-09T09:22:56.988Z,93283.75
2023-11-09T09:25:24.959Z,93278.31
2023-11-09T09:27:52.646Z,93279.88
2023-11-09T09:30:22.746Z,93286.47
2023-11-09T09:32:52.063Z,93280.25
2023-11-09T09:35:29.916Z,93276.78
2023-11-09T09:38:05.252Z,93282.13
2023-11-09T09:40:40.562Z,93284.13
2023-11-09T09:43:15.998Z,93275.13
2023-11-09T09:45:43.042Z,93275.38
2023-11-09T09:48:13.199Z,93269.56
2023-11-09T09:50:40.604Z,93279.66
2023-11-09T09:53:11.396Z,93277.94
2023-11-09T09:55:41.018Z,93275.22
2023-11-09T09:58:09.714Z,93279.88
2023-11-09T10:00:38.131Z,93265.81
2023-11-09T10:03:08.327Z,93271.47
2023-11-09T10:05:37.797Z,93261.63
2023-11-09T10:08:16.550Z,93264.31
2023-11-09T10:10:48.984Z,93253.22
2023-11-09T10:13:17.271Z,93253.72
2023-11-09T10:15:45.331Z,93240.09
2023-11-09T10:18:13.092Z,93255.28
2023-11-09T10:20:41.514Z,93246.75
2023-11-09T10:23:15.713Z,93245.97
2023-11-09T10:25:43.241Z,93247.81
2023-11-09T10:28:14.800Z,93246.47
2023-11-09T10:30:45.802Z,93245.47
2023-11-09T10:33:14.558Z,93230.63
2023-11-09T10:35:42.899Z,93237.31
2023-11-09T10:38:13.508Z,93222.22
2023-11-09T10:41:14.287Z,93214.69
2023-11-09T10:43:39.340Z,93213.00
2023-11-09T10:46:10.545Z,93222.34
2023-11-09T10:48:42.084Z,93220.81
2023-11-09T10:51:11.144Z,93203.22
2023-11-09T10:53:39.211Z,93206.38
2023-11-09T10:56:12.046Z,93220.31
2023-11-09T10:58:42.175Z,93208.66
2023-11-09T11:01:12.113Z,93214.75
2023-11-09T11:03:45.806Z,93214.69
2023-11-09T11:06:18.212Z,93215.03
2023-11-09T11:08:52.349Z,93207.22
2023-11-09T11:11:25.723Z,93200.03
2023-11-09T11:13:58.841Z,93206.00
2023-11-09T11:16:43.425Z,93198.19
2023-11-09T11:19:34.886Z,93196.09
2023-11-09T11:22:20.388Z,93199.16
2023-11-09T11:24:55.905Z,93201.41
2023-11-09T11:27:56.657Z,93207.00
2023-11-09T11:30:34.789Z,93210.09
2023-11-09T11:33:05.880Z,93195.31
2023-11-09T11:35:45.213Z,93195.34
2023-11-09T11:38:14.756Z,93183.19
2023-11-09T11:40:42.295Z,93179.88
2023-11-09T11:43:09.484Z,93196.38
2023-11-09T11:45:39.862Z,93175.34
2023-11-09T11:48:13.801Z,93183.19
2023-11-09T11:50:41.968Z,93187.13
2023-11-09T11:53:13.859Z,93180.09
2023-11-09T11:56:12.186Z,93169.78
2023-11-09T11:58:53.525Z,93178.75
2023-11-09T12:01:32.660Z,93166.22
2023-11-09T12:04:04.934Z,93175.75
2023-11-09T12:06:39.482Z,93168.97
2023-11-09T12:09:12.002Z,93168.88
2023-11-09T12:11:59.593Z,93169.47
2023-11-09T12:14:26.384Z,93165.34
2023-11-09T12:16:53.117Z,93171.91
2023-11-09T12:19:20.125Z,93166.44
2023-11-09T12:21:48.119Z,93176.75
2023-11-09T12:24:24.218Z,93175.94
2023-11-09T12:27:10.048Z,93164.63
2023-11-09T12:29:39.090Z,93154.69
2023-11-09T12:32:07.785Z,93168.31
2023-11-09T12:34:38.312Z,93163.59
2023-11-09T12:37:12.213Z,93161.53
2023-11-09T12:39:40.769Z,93158.63
2023-11-09T12:42:07.798Z,93158.28
2023-11-09T12:44:36.617Z,93142.81
2023-11-09T12:47:09.564Z,93157.53
2023-11-09T12:49:36.623Z,93154.81
2023-11-09T12:52:06.583Z,93149.53
2023-11-09T12:54:37.057Z,93153.94
2023-11-09T12:57:06.546Z,93151.63
2023-11-09T12:59:35.273Z,93139.25
2023-11-09T13:02:06.610Z,93139.69
2023-11-09T13:04:43.404Z,93126.19
2023-11-09T13:07:13.301Z,93136.53
2023-11-09T13:09:42.899Z,93121.81
2023-11-09T13:12:30.830Z,93129.25
2023-11-09T13:15:10.888Z,93120.03
2023-11-09T13:17:50.117Z,93113.31
2023-11-09T13:20:37.963Z,93126.03
2023-11-09T13:23:07.947Z,93115.41
2023-11-09T13:25:44.482Z,93109.69
2023-11-09T13:28:17.120Z,93111.25
2023-11-09T13:30:53.554Z,93114.44
2023-11-09T13:33:39.082Z,93112.31
2023-11-09T13:36:18.101Z,93114.59
2023-11-09T13:38:51.196Z,93118.06
2023-11-09T13:41:19.637Z,93121.88
2023-11-09T13:43:57.728Z,93117.69
2023-11-09T13:46:29.417Z,93119.81
2023-11-09T13:49:11.637Z,93122.78
2023-11-09T13:51:38.622Z,93120.31
2023-11-09T13:54:26.137Z,93115.41
2023-11-09T13:57:13.186Z,93123.25
2023-11-09T13:59:44.691Z,93120.72
2023-11-09T14:02:18.626Z,93119.88
2023-11-09T14:04:53.181Z,93117.53
2023-11-09T14:07:33.296Z,93124.59
2023-11-09T14:10:14.242Z,93127.56
2023-11-09T14:12:51.029Z,93129.13
2023-11-09T14:15:24.986Z,93122.19
2023-11-09T14:17:53.480Z,93118.00
2023-11-09T14:20:31.954Z,93124.41
2023-11-09T14:23:06.511Z,93125.50
2023-11-09T14:25:34.878Z,93122.91
2023-11-09T14:28:03.375Z,93118.78
2023-11-09T14:30:35.133Z,93122.28
2023-11-09T14:33:03.960Z,93117.13
2023-11-09T14:35:33.552Z,93103.53
2023-11-09T14:38:05.440Z,93112.31
2023-11-09T14:40:37.256Z,93105.00
2023-11-09T14:43:10.481Z,93101.09
2023-11-09T14:45:43.304Z,93108.63
2023-11-09T14:48:14.195Z,93113.41
2023-11-09T14:50:42.846Z,93118.78
2023-11-09T14:53:13.353Z,93119.16
2023-11-09T14:55:43.239Z,93118.06
2023-11-09T14:58:15.447Z,93115.78
2023-11-09T15:00:46.682Z,93120.53
2023-11-09T15:03:20.370Z,93112.69
2023-11-09T15:05:51.702Z,93117.06
2023-11-09T15:08:19.589Z,93109.66
2023-11-09T15:10:48.049Z,93111.75
2023-11-09T15:13:14.825Z,93112.06
2023-11-09T15:15:41.980Z,93112.84
2023-11-09T15:18:11.019Z,93107.50
2023-11-09T15:20:39.157Z,93107.59
2023-11-09T15:23:07.130Z,93108.25
2023-11-09T15:25:34.317Z,93106.50
2023-11-09T15:28:02.606Z,93096.72
2023-11-09T15:30:31.153Z,93099.59
2023-11-09T15:32:59.566Z,93103.94
2023-11-09T15:35:29.342Z,93108.50
2023-11-09T15:37:58.668Z,93106.34
2023-11-09T15:41:09.556Z,93099.03
2023-11-09T15:43:13.103Z,93089.75
2023-11-09T15:45:41.268Z,93092.47
2023-11-09T15:48:09.286Z,93084.25
2023-11-09T15:50:37.833Z,93081.22
2023-11-09T15:53:05.393Z,93080.88
2023-11-09T15:55:32.510Z,93069.59
2023-11-09T15:58:03.838Z,93079.31
2023-11-09T16:00:32.706Z,93075.72
2023-11-09T16:02:59.723Z,93072.97
2023-11-09T16:05:26.463Z,93080.09
2023-11-09T16:07:54.795Z,93082.78
2023-11-09T16:10:25.310Z,93083.59
2023-11-09T16:12:53.084Z,93073.88
2023-11-09T16:15:22.076Z,93069.63
2023-11-09T16:17:50.756Z,93072.75
2023-11-09T16:20:18.814Z,93071.63
2023-11-09T16:22:46.619Z,93081.34
2023-11-09T16:25:23.930Z,93074.41
2023-11-09T16:27:51.809Z,93062.78
2023-11-09T16:30:31.866Z,93064.00
2023-11-09T16:33:02.464Z,93069.09
2023-11-09T16:35:31.444Z,93066.72
2023-11-09T16:37:59.062Z,93068.63
2023-11-09T16:40:26.106Z,93072.56
2023-11-09T16:42:53.285Z,93056.66
2023-11-09T16:45:21.705Z,93066.44
2023-11-09T16:47:49.517Z,93065.75
2023-11-09T16:50:17.241Z,93071.97
2023-11-09T16:52:44.133Z,93069.56
2023-11-09T16:55:12.480Z,93071.91
2023-11-09T16:57:46.382Z,93068.06
2023-11-09T17:00:16.602Z,93070.03
2023-11-09T17:02:43.724Z,93073.06
2023-11-09T17:05:14.211Z,93064.16
2023-11-09T17:07:44.555Z,93082.06
2023-11-09T17:10:13.484Z,93083.56
2023-11-09T17:12:40.911Z,93083.94
2023-11-09T17:15:10.314Z,93091.81
2023-11-09T17:17:44.369Z,93085.56
2023-11-09T17:20:13.322Z,93088.72
2023-11-09T17:22:44.599Z,93088.25
2023-11-09T17:25:12.156Z,93085.53
2023-11-09T17:27:38.984Z,93082.44
2023-11-09T17:30:11.305Z,93084.31
2023-11-09T17:32:40.386Z,93082.06
2023-11-09T17:35:08.562Z,93077.47
2023-11-09T17:37:35.599Z,93089.13
2023-11-09T17:40:04.534Z,93081.69
2023-11-09T17:42:31.456Z,93099.97
2023-11-09T17:44:58.272Z,93099.59
2023-11-09T17:47:25.368Z,93103.97
2023-11-09T17:49:53.020Z,93099.66
2023-11-09T17:52:20.513Z,93095.50
2023-11-09T17:54:47.454Z,93094.28
2023-11-09T17:57:14.833Z,93101.63
2023-11-09T17:59:44.540Z,93102.41
2023-11-09T18:02:12.942Z,93103.19
2023-11-09T18:04:41.721Z,93101.63
2023-11-09T18:07:09.086Z,93104.25
2023-11-09T18:09:36.040Z,93095.31
2023-11-09T18:12:03.708Z,93105.09
2023-11-09T18:14:30.698Z,93106.22
2023-11-09T18:16:58.209Z,93102.78
2023-11-09T18:19:25.099Z,93090.72
2023-11-09T18:21:54.164Z,93093.47
2023-11-09T18:24:21.657Z,93085.66
2023-11-09T18:26:48.326Z,93092.75
2023-11-09T18:29:15.121Z,93090.81
2023-11-09T18:31:41.937Z,93091.16
2023-11-09T18:34:11.787Z,93082.97
2023-11-09T18:36:38.644Z,93070.22
2023-11-09T18:39:05.719Z,93073.00
2023-11-09T18:41:32.386Z,93068.78
2023-11-09T18:43:59.180Z,93061.88
2023-11-09T18:46:26.270Z,93068.06
2023-11-09T18:48:52.993Z,93066.47
2023-11-09T18:51:19.934Z,93066.88
2023-11-09T18:53:48.015Z,93064.09
2023-11-09T18:56:16.381Z,93055.19
2023-11-09T18:58:43.181Z,93039.22
2023-11-09T19:01:12.159Z,93048.50
2023-11-09T19:06:09.011Z,93051.53
2023-11-09T19:08:37.236Z,93050.31
2023-11-09T19:11:11.445Z,93049.50
2023-11-09T19:13:38.987Z,93056.56
2023-11-09T19:16:07.343Z,93054.66
2023-11-09T19:18:35.194Z,93050.59
2023-11-09T19:23:31.828Z,93050.06
2023-11-09T19:25:59.211Z,93048.13
2023-11-09T19:28:28.693Z,93054.28
2023-11-09T19:30:59.540Z,93045.38
2023-11-09T19:33:27.058Z,93037.16
2023-11-09T19:35:54.568Z,93039.97
2023-11-09T19:38:21.391Z,93032.97
2023-11-09T19:40:48.784Z,93036.84
2023-11-09T19:43:15.694Z,93036.44
2023-11-09T19:45:44.466Z,93038.78
2023-11-09T19:48:13.274Z,93026.78
2023-11-09T19:50:41.289Z,93038.06
2023-11-09T19:53:08.741Z,93030.53
2023-11-09T19:55:37.040Z,93036.63
2023-11-09T19:58:05.870Z,93032.66
2023-11-09T20:00:36.402Z,93030.72
2023-11-09T20:03:07.353Z,93028.63
2023-11-09T20:05:38.034Z,93021.44
2023-11-09T20:08:04.958Z,93018.69
2023-11-09T20:10:32.070Z,93024.50
2023-11-09T20:12:59.879Z,93024.09
2023-11-09T20:15:28.982Z,93018.69
2023-11-09T20:17:56.492Z,93021.81
2023-11-09T20:20:23.529Z,93023.78
2023-11-09T20:22:50.600Z,93026.81
2023-11-09T20:25:18.063Z,93019.06
2023-11-09T20:27:46.245Z,93018.25
2023-11-09T20:30:15.492Z,93012.53
2023-11-09T20:32:43.904Z,93016.81
2023-11-09T20:35:11.978Z,93011.78
2023-11-09T20:37:41.542Z,93010.69
2023-11-09T20:40:09.935Z,93015.88
2023-11-09T20:42:40.294Z,93007.00
2023-11-09T20:45:09.832Z,93012.88
2023-11-09T20:47:39.947Z,93014.50
2023-11-09T20:50:15.338Z,93015.41
2023-11-09T20:52:48.485Z,93015.34
2023-11-09T20:55:22.537Z,93007.59
2023-11-09T20:57:50.772Z,93007.22
2023-11-09T21:00:22.829Z,93004.13
2023-11-09T21:02:53.912Z,92999.78
2023-11-09T21:05:22.912Z,92990.19
2023-11-09T21:07:50.486Z,92980.44
2023-11-09T21:10:18.653Z,92976.50
2023-11-09T21:12:47.286Z,92968.38
2023-11-09T21:15:14.308Z,92960.22
2023-11-09T21:17:44.118Z,92955.94
2023-11-09T21:20:13.568Z,92956.63
2023-11-09T21:22:40.519Z,92952.28
2023-11-09T21:25:08.340Z,92935.19
2023-11-09T21:27:35.578Z,92939.81
2023-11-09T21:30:02.628Z,92934.53
2023-11-09T21:32:29.710Z,92934.72
2023-11-09T21:34:56.677Z,92934.34
2023-11-09T21:37:24.231Z,92929.16
2023-11-09T21:39:50.993Z,92924.13
2023-11-09T21:42:20.227Z,92917.63
2023-11-09T21:44:49.451Z,92926.19
2023-11-09T21:47:20.006Z,92926.25
2023-11-09T21:49:46.903Z,92921.25
2023-11-09T21:52:13.887Z,92910.03
2023-11-09T21:54:43.848Z,92911.28
2023-11-09T21:57:14.292Z,92903.97
2023-11-09T21:59:41.470Z,92907.09
2023-11-09T22:02:08.209Z,92900.53
2023-11-09T22:04:38.161Z,92897.84
2023-11-09T22:07:05.296Z,92891.66
2023-11-09T22:09:34.739Z,92903.34
2023-11-09T22:12:02.471Z,92900.97
2023-11-09T22:14:29.533Z,92894.28
2023-11-09T22:16:58.766Z,92880.69
2023-11-09T22:19:25.835Z,92878.72
2023-11-09T22:21:53.050Z,92870.91
2023-11-09T22:24:19.945Z,92872.06
2023-11-09T22:26:49.804Z,92871.16
2023-11-09T22:29:16.637Z,92867.59
2023-11-09T22:31:43.654Z,92872.19
2023-11-09T22:34:10.653Z,92863.59
2023-11-09T22:36:37.567Z,92862.34
2023-11-09T22:39:06.548Z,92847.75
2023-11-09T22:41:33.382Z,92843.03
2023-11-09T22:44:00.503Z,92839.88
2023-11-09T22:46:27.721Z,92835.19
2023-11-09T22:48:54.509Z,92826.28
2023-11-09T22:51:21.378Z,92821.97
2023-11-09T22:53:48.934Z,92827.09
2023-11-09T22:56:15.827Z,92819.28
2023-11-09T22:58:42.740Z,92819.75
2023-11-09T23:01:09.408Z,92809.63
2023-11-09T23:03:36.405Z,92808.78
2023-11-09T23:06:03.433Z,92807.22
2023-11-09T23:08:35.275Z,92801.00
2023-11-09T23:11:02.310Z,92808.03
2023-11-09T23:13:29.646Z,92809.97
2023-11-09T23:15:56.486Z,92799.06
2023-11-09T23:18:23.252Z,92804.22
2023-11-09T23:20:50.142Z,92806.59
2023-11-09T23:23:16.868Z,92806.28
2023-11-09T23:25:43.667Z,92788.84
2023-11-09T23:28:12.265Z,92786.47
2023-11-09T23:30:39.468Z,92786.03
2023-11-09T23:33:06.322Z,92792.41
2023-11-09T23:35:33.124Z,92805.50
2023-11-09T23:37:59.856Z,92786.06
2023-11-09T23:40:27.458Z,92786.34
2023-11-09T23:42:54.755Z,92780.78
2023-11-09T23:45:22.497Z,92776.53
2023-11-09T23:47:49.682Z,92764.56
2023-11-09T23:50:16.455Z,92765.63
2023-11-09T23:52:45.295Z,92771.34
2023-11-09T23:55:12.576Z,92759.88
2023-11-09T23:57:39.718Z,92755.59
